Art, Indiana
Current Conditions -  °F | °C
As of 6:53 AM on Monday 24 Nov 2014 (Local Time) from KHUF Reporting Station
Light Rain Light Rain  
Wind Chill: 13°   Ceiling: 1700
Heat Index: 13°   Visibility: 10mi
Dew Point: 11°   Wind: 23mph
Humidity: 84%   Direction: 240°WSW
Pressure: 29.19"   Gusts: 33mph
Location:  39.5158°N, 87.1262°W
Report Text: KHUF 241153Z 24020G29KT 10SM -RA BKN017 BKN031 OVC050 13/11 A2919 RMK AO2 PK WND 24029/1146 RAB32 SLP882 P0003 60022 7//// T01330106 10139 20122 55003 $
Loading
Personal Weather Stations






























Interactive Weather Map New forecast layout! Learn more

10-Day Weather Forecast

Advertisements
Track Severe Weather on mobile